sensor_id;sensor_type;location;lat;lon;timestamp;pressure;altitude;pressure_sealevel;temperature;humidity
65997;BME280;52765;52.258;21.052;2022-07-10T00:00:18;100527.03;;;15.15;98.20
65997;BME280;52765;52.258;21.052;2022-07-10T00:02:46;100517.59;;;15.11;97.28
65997;BME280;52765;52.258;21.052;2022-07-10T00:05:11;100511.13;;;15.12;97.14
65997;BME280;52765;52.258;21.052;2022-07-10T00:07:37;100519.25;;;15.12;97.33
65997;BME280;52765;52.258;21.052;2022-07-10T00:10:04;100519.75;;;15.15;97.27
65997;BME280;52765;52.258;21.052;2022-07-10T00:12:29;100508.81;;;15.09;97.35
65997;BME280;52765;52.258;21.052;2022-07-10T00:14:55;100523.03;;;15.11;97.69
65997;BME280;52765;52.258;21.052;2022-07-10T00:17:21;100528.81;;;15.08;97.66
65997;BME280;52765;52.258;21.052;2022-07-10T00:19:46;100522.13;;;14.95;97.95
65997;BME280;52765;52.258;21.052;2022-07-10T00:22:12;100509.88;;;14.76;99.19
65997;BME280;52765;52.258;21.052;2022-07-10T00:24:37;100514.47;;;14.76;99.75
65997;BME280;52765;52.258;21.052;2022-07-10T00:27:03;100526.63;;;14.80;99.88
65997;BME280;52765;52.258;21.052;2022-07-10T00:29:29;100504.56;;;14.60;100.00
65997;BME280;52765;52.258;21.052;2022-07-10T00:31:54;100519.28;;;14.66;100.00
65997;BME280;52765;52.258;21.052;2022-07-10T00:34:25;100489.59;;;14.41;100.00
65997;BME280;52765;52.258;21.052;2022-07-10T00:36:50;100499.38;;;14.42;100.00
65997;BME280;52765;52.258;21.052;2022-07-10T00:39:16;100513.44;;;14.46;100.00
65997;BME280;52765;52.258;21.052;2022-07-10T00:41:41;100488.84;;;14.24;100.00
65997;BME280;52765;52.258;21.052;2022-07-10T00:44:07;100504.59;;;14.20;100.00
65997;BME280;52765;52.258;21.052;2022-07-10T00:46:33;100506.28;;;14.21;100.00
65997;BME280;52765;52.258;21.052;2022-07-10T00:48:59;100490.41;;;14.10;100.00
65997;BME280;52765;52.258;21.052;2022-07-10T00:51:27;100491.50;;;14.01;100.00
65997;BME280;52765;52.258;21.052;2022-07-10T00:53:53;100487.81;;;13.85;100.00
65997;BME280;52765;52.258;21.052;2022-07-10T00:56:22;100490.03;;;13.82;100.00
65997;BME280;52765;52.258;21.052;2022-07-10T00:58:48;100499.00;;;13.82;100.00
65997;BME280;52765;52.258;21.052;2022-07-10T01:01:15;100490.03;;;13.82;100.00
65997;BME280;52765;52.258;21.052;2022-07-10T01:03:42;100498.97;;;13.91;100.00
65997;BME280;52765;52.258;21.052;2022-07-10T01:06:09;100497.63;;;13.86;100.00
65997;BME280;52765;52.258;21.052;2022-07-10T01:08:35;100503.22;;;13.85;100.00
65997;BME280;52765;52.258;21.052;2022-07-10T01:11:01;100467.94;;;13.62;100.00
65997;BME280;52765;52.258;21.052;2022-07-10T01:13:27;100490.72;;;13.84;100.00
65997;BME280;52765;52.258;21.052;2022-07-10T01:15:52;100476.75;;;13.64;100.00
65997;BME280;52765;52.258;21.052;2022-07-10T01:18:19;100489.38;;;13.72;100.00
65997;BME280;52765;52.258;21.052;2022-07-10T01:20:44;100468.13;;;13.52;100.00
65997;BME280;52765;52.258;21.052;2022-07-10T01:23:10;100490.47;;;13.54;100.00
65997;BME280;52765;52.258;21.052;2022-07-10T01:25:36;100466.47;;;13.35;100.00
65997;BME280;52765;52.258;21.052;2022-07-10T01:28:01;100473.94;;;13.32;100.00
65997;BME280;52765;52.258;21.052;2022-07-10T01:30:27;100448.03;;;13.22;100.00
65997;BME280;52765;52.258;21.052;2022-07-10T01:32:52;100479.16;;;13.42;100.00
65997;BME280;52765;52.258;21.052;2022-07-10T01:35:18;100465.63;;;13.42;100.00
65997;BME280;52765;52.258;21.052;2022-07-10T01:37:44;100443.63;;;13.37;100.00
65997;BME280;52765;52.258;21.052;2022-07-10T01:40:11;100469.16;;;13.51;100.00
65997;BME280;52765;52.258;21.052;2022-07-10T01:42:37;100439.91;;;13.30;100.00
65997;BME280;52765;52.258;21.052;2022-07-10T01:45:08;100459.03;;;13.37;100.00
65997;BME280;52765;52.258;21.052;2022-07-10T01:47:34;100454.47;;;13.29;100.00
65997;BME280;52765;52.258;21.052;2022-07-10T01:50:00;100440.06;;;13.28;100.00
65997;BME280;52765;52.258;21.052;2022-07-10T01:52:25;100428.09;;;13.23;100.00
65997;BME280;52765;52.258;21.052;2022-07-10T01:54:51;100452.94;;;13.43;100.00
65997;BME280;52765;52.258;21.052;2022-07-10T01:57:16;100450.88;;;13.45;100.00
65997;BME280;52765;52.258;21.052;2022-07-10T01:59:43;100450.56;;;13.48;100.00
65997;BME280;52765;52.258;21.052;2022-07-10T02:02:08;100453.56;;;13.53;100.00
65997;BME280;52765;52.258;21.052;2022-07-10T02:04:34;100423.69;;;13.38;100.00
65997;BME280;52765;52.258;21.052;2022-07-10T02:07:14;100445.81;;;13.50;100.00
65997;BME280;52765;52.258;21.052;2022-07-10T02:09:41;100444.97;;;13.49;100.00
65997;BME280;52765;52.258;21.052;2022-07-10T02:12:08;100441.06;;;13.44;100.00
65997;BME280;52765;52.258;21.052;2022-07-10T02:14:34;100452.03;;;13.50;100.00
65997;BME280;52765;52.258;21.052;2022-07-10T02:17:00;100445.97;;;13.48;100.00
65997;BME280;52765;52.258;21.052;2022-07-10T02:19:26;100448.00;;;13.55;100.00
65997;BME280;52765;52.258;21.052;2022-07-10T02:21:51;100440.53;;;13.57;100.00
65997;BME280;52765;52.258;21.052;2022-07-10T02:24:17;100440.19;;;13.60;100.00
65997;BME280;52765;52.258;21.052;2022-07-10T02:26:43;100440.03;;;13.61;100.00
65997;BME280;52765;52.258;21.052;2022-07-10T02:29:08;100442.06;;;13.59;100.00
65997;BME280;52765;52.258;21.052;2022-07-10T02:31:34;100422.81;;;13.46;100.00
65997;BME280;52765;52.258;21.052;2022-07-10T02:34:02;100438.19;;;13.54;100.00
65997;BME280;52765;52.258;21.052;2022-07-10T02:36:27;100424.16;;;13.50;100.00
65997;BME280;52765;52.258;21.052;2022-07-10T02:38:53;100445.28;;;13.55;100.00
65997;BME280;52765;52.258;21.052;2022-07-10T02:41:18;100413.38;;;13.33;100.00
65997;BME280;52765;52.258;21.052;2022-07-10T02:43:44;100415.75;;;13.37;100.00
65997;BME280;52765;52.258;21.052;2022-07-10T02:46:09;100423.00;;;13.44;100.00
65997;BME280;52765;52.258;21.052;2022-07-10T02:48:35;100415.88;;;13.43;100.00
65997;BME280;52765;52.258;21.052;2022-07-10T02:51:00;100439.53;;;13.58;100.00
65997;BME280;52765;52.258;21.052;2022-07-10T02:53:26;100437.81;;;13.57;100.00
65997;BME280;52765;52.258;21.052;2022-07-10T02:55:51;100427.84;;;13.57;100.00
65997;BME280;52765;52.258;21.052;2022-07-10T02:58:19;100412.50;;;13.49;100.00
65997;BME280;52765;52.258;21.052;2022-07-10T03:00:45;100433.59;;;13.62;100.00
65997;BME280;52765;52.258;21.052;2022-07-10T03:03:10;100415.38;;;13.48;100.00
65997;BME280;52765;52.258;21.052;2022-07-10T03:05:36;100419.56;;;13.50;100.00
65997;BME280;52765;52.258;21.052;2022-07-10T03:08:01;100410.31;;;13.45;100.00
65997;BME280;52765;52.258;21.052;2022-07-10T03:10:27;100426.84;;;13.50;100.00
65997;BME280;52765;52.258;21.052;2022-07-10T03:12:53;100411.69;;;13.41;100.00
65997;BME280;52765;52.258;21.052;2022-07-10T03:15:18;100436.47;;;13.61;100.00
65997;BME280;52765;52.258;21.052;2022-07-10T03:17:44;100422.44;;;13.57;100.00
65997;BME280;52765;52.258;21.052;2022-07-10T03:20:10;100435.78;;;13.59;100.00
65997;BME280;52765;52.258;21.052;2022-07-10T03:22:36;100420.78;;;13.48;100.00
65997;BME280;52765;52.258;21.052;2022-07-10T03:25:02;100407.09;;;13.41;100.00
65997;BME280;52765;52.258;21.052;2022-07-10T03:27:28;100431.91;;;13.61;100.00
65997;BME280;52765;52.258;21.052;2022-07-10T03:29:54;100421.59;;;13.57;100.00
65997;BME280;52765;52.258;21.052;2022-07-10T03:32:19;100428.72;;;13.58;100.00
65997;BME280;52765;52.258;21.052;2022-07-10T03:34:45;100439.53;;;13.58;100.00
65997;BME280;52765;52.258;21.052;2022-07-10T03:37:10;100430.25;;;13.44;100.00
65997;BME280;52765;52.258;21.052;2022-07-10T03:39:36;100419.47;;;13.36;100.00
65997;BME280;52765;52.258;21.052;2022-07-10T03:42:01;100413.38;;;13.33;100.00
65997;BME280;52765;52.258;21.052;2022-07-10T03:44:27;100411.84;;;13.39;100.00
65997;BME280;52765;52.258;21.052;2022-07-10T03:46:52;100426.34;;;13.55;100.00
65997;BME280;52765;52.258;21.052;2022-07-10T03:49:18;100421.06;;;13.61;100.00
65997;BME280;52765;52.258;21.052;2022-07-10T03:51:44;100410.41;;;13.60;100.00
65997;BME280;52765;52.258;21.052;2022-07-10T03:54:09;100425.75;;;13.76;100.00
65997;BME280;52765;52.258;21.052;2022-07-10T03:56:35;100412.69;;;13.87;100.00
65997;BME280;52765;52.258;21.052;2022-07-10T03:59:19;100421.91;;;14.01;100.00
65997;BME280;52765;52.258;21.052;2022-07-10T04:01:44;100411.25;;;14.00;100.00
65997;BME280;52765;52.258;21.052;2022-07-10T04:04:10;100433.34;;;14.12;100.00
65997;BME280;52765;52.258;21.052;2022-07-10T04:06:35;100400.22;;;14.01;100.00
65997;BME280;52765;52.258;21.052;2022-07-10T04:09:04;100401.03;;;14.10;100.00
65997;BME280;52765;52.258;21.052;2022-07-10T04:11:30;100434.47;;;14.25;100.00
65997;BME280;52765;52.258;21.052;2022-07-10T04:13:56;100410.31;;;14.16;100.00
65997;BME280;52765;52.258;21.052;2022-07-10T04:16:21;100430.84;;;14.33;100.00
65997;BME280;52765;52.258;21.052;2022-07-10T04:18:46;100416.41;;;14.18;100.00
65997;BME280;52765;52.258;21.052;2022-07-10T04:21:13;100420.72;;;14.27;100.00
65997;BME280;52765;52.258;21.052;2022-07-10T04:23:38;100403.63;;;14.27;100.00
65997;BME280;52765;52.258;21.052;2022-07-10T04:26:04;100412.31;;;14.45;100.00
65997;BME280;52765;52.258;21.052;2022-07-10T04:28:30;100425.13;;;14.59;100.00
65997;BME280;52765;52.258;21.052;2022-07-10T04:30:57;100408.16;;;14.57;100.00
65997;BME280;52765;52.258;21.052;2022-07-10T04:33:24;100416.97;;;14.59;100.00
65997;BME280;52765;52.258;21.052;2022-07-10T04:35:50;100413.25;;;14.60;98.13
65997;BME280;52765;52.258;21.052;2022-07-10T04:38:15;100418.59;;;14.69;98.10
65997;BME280;52765;52.258;21.052;2022-07-10T04:40:41;100425.09;;;14.83;95.71
65997;BME280;52765;52.258;21.052;2022-07-10T04:43:06;100415.44;;;14.80;95.21
65997;BME280;52765;52.258;21.052;2022-07-10T04:45:32;100399.94;;;14.74;95.21
65997;BME280;52765;52.258;21.052;2022-07-10T04:47:57;100415.59;;;15.02;93.96
65997;BME280;52765;52.258;21.052;2022-07-10T04:50:23;100409.69;;;14.98;93.79
65997;BME280;52765;52.258;21.052;2022-07-10T04:52:48;100403.41;;;14.83;92.77
65997;BME280;52765;52.258;21.052;2022-07-10T04:55:14;100394.56;;;14.66;92.42
65997;BME280;52765;52.258;21.052;2022-07-10T04:57:39;100398.59;;;14.70;92.91
65997;BME280;52765;52.258;21.052;2022-07-10T05:00:10;100420.69;;;14.82;93.16
65997;BME280;52765;52.258;21.052;2022-07-10T05:02:36;100407.66;;;14.77;93.23
65997;BME280;52765;52.258;21.052;2022-07-10T05:05:02;100391.03;;;14.80;93.64
65997;BME280;52765;52.258;21.052;2022-07-10T05:07:27;100385.34;;;14.90;92.45
65997;BME280;52765;52.258;21.052;2022-07-10T05:09:53;100405.72;;;15.09;91.59
65997;BME280;52765;52.258;21.052;2022-07-10T05:12:18;100386.00;;;14.92;91.35
65997;BME280;52765;52.258;21.052;2022-07-10T05:14:44;100387.34;;;14.96;92.30
65997;BME280;52765;52.258;21.052;2022-07-10T05:17:09;100390.63;;;15.06;91.30
65997;BME280;52765;52.258;21.052;2022-07-10T05:19:35;100383.59;;;15.12;90.62
65997;BME280;52765;52.258;21.052;2022-07-10T05:22:00;100389.22;;;15.25;89.69
65997;BME280;52765;52.258;21.052;2022-07-10T05:24:27;100410.94;;;15.55;89.40
65997;BME280;52765;52.258;21.052;2022-07-10T05:26:52;100411.22;;;15.60;87.50
65997;BME280;52765;52.258;21.052;2022-07-10T05:29:18;100388.84;;;15.58;88.25
65997;BME280;52765;52.258;21.052;2022-07-10T05:31:43;100376.19;;;15.65;86.86
65997;BME280;52765;52.258;21.052;2022-07-10T05:34:09;100379.50;;;15.76;86.67
65997;BME280;52765;52.258;21.052;2022-07-10T05:36:35;100381.34;;;15.90;86.19
65997;BME280;52765;52.258;21.052;2022-07-10T05:39:00;100390.31;;;16.05;86.54
65997;BME280;52765;52.258;21.052;2022-07-10T05:41:26;100397.94;;;16.17;86.10
65997;BME280;52765;52.258;21.052;2022-07-10T05:43:52;100391.84;;;16.15;84.98
65997;BME280;52765;52.258;21.052;2022-07-10T05:46:18;100392.50;;;16.17;83.72
65997;BME280;52765;52.258;21.052;2022-07-10T05:48:43;100391.09;;;16.21;84.01
65997;BME280;52765;52.258;21.052;2022-07-10T05:51:09;100377.84;;;16.33;82.81
65997;BME280;52765;52.258;21.052;2022-07-10T05:53:34;100392.25;;;16.55;81.53
65997;BME280;52765;52.258;21.052;2022-07-10T05:56:01;100388.31;;;16.57;79.82
65997;BME280;52765;52.258;21.052;2022-07-10T05:58:27;100374.41;;;16.45;80.47
65997;BME280;52765;52.258;21.052;2022-07-10T06:00:52;100388.25;;;16.51;80.82
65997;BME280;52765;52.258;21.052;2022-07-10T06:03:18;100375.22;;;16.68;78.91
65997;BME280;52765;52.258;21.052;2022-07-10T06:05:43;100374.31;;;16.82;77.22
65997;BME280;52765;52.258;21.052;2022-07-10T06:08:10;100381.69;;;16.88;75.14
65997;BME280;52765;52.258;21.052;2022-07-10T06:10:36;100388.19;;;16.87;76.80
65997;BME280;52765;52.258;21.052;2022-07-10T06:13:02;100395.22;;;16.60;77.17
65997;BME280;52765;52.258;21.052;2022-07-10T06:15:27;100375.31;;;16.53;77.85
65997;BME280;52765;52.258;21.052;2022-07-10T06:17:56;100370.06;;;16.51;77.72
65997;BME280;52765;52.258;21.052;2022-07-10T06:20:22;100383.72;;;16.36;75.85
65997;BME280;52765;52.258;21.052;2022-07-10T06:22:47;100387.06;;;16.38;77.43
65997;BME280;52765;52.258;21.052;2022-07-10T06:25:13;100359.19;;;16.30;78.04
65997;BME280;52765;52.258;21.052;2022-07-10T06:27:38;100374.91;;;16.56;78.09
65997;BME280;52765;52.258;21.052;2022-07-10T06:30:05;100378.97;;;16.67;78.27
65997;BME280;52765;52.258;21.052;2022-07-10T06:32:30;100382.75;;;16.65;77.61
65997;BME280;52765;52.258;21.052;2022-07-10T06:34:56;100390.44;;;16.62;80.31
65997;BME280;52765;52.258;21.052;2022-07-10T06:37:22;100374.09;;;16.62;79.92
65997;BME280;52765;52.258;21.052;2022-07-10T06:39:48;100372.06;;;16.86;79.61
65997;BME280;52765;52.258;21.052;2022-07-10T06:42:14;100394.06;;;16.91;79.38
65997;BME280;52765;52.258;21.052;2022-07-10T06:44:41;100363.22;;;16.62;81.40
65997;BME280;52765;52.258;21.052;2022-07-10T06:47:07;100358.13;;;16.74;81.61
65997;BME280;52765;52.258;21.052;2022-07-10T06:49:52;100369.69;;;16.82;81.58
65997;BME280;52765;52.258;21.052;2022-07-10T06:52:18;100366.50;;;17.00;81.38
65997;BME280;52765;52.258;21.052;2022-07-10T06:54:47;100367.81;;;17.11;79.09
65997;BME280;52765;52.258;21.052;2022-07-10T06:57:13;100370.19;;;17.21;79.25
65997;BME280;52765;52.258;21.052;2022-07-10T06:59:38;100360.13;;;17.22;76.75
65997;BME280;52765;52.258;21.052;2022-07-10T07:02:04;100374.16;;;17.18;75.30
65997;BME280;52765;52.258;21.052;2022-07-10T07:04:30;100378.28;;;17.08;76.85
65997;BME280;52765;52.258;21.052;2022-07-10T07:06:55;100399.19;;;17.35;74.32
65997;BME280;52765;52.258;21.052;2022-07-10T07:09:21;100376.06;;;17.25;75.11
65997;BME280;52765;52.258;21.052;2022-07-10T07:11:46;100378.13;;;17.51;75.04
65997;BME280;52765;52.258;21.052;2022-07-10T07:14:12;100380.50;;;17.67;75.42
65997;BME280;52765;52.258;21.052;2022-07-10T07:16:38;100378.75;;;17.53;75.41
65997;BME280;52765;52.258;21.052;2022-07-10T07:19:07;100385.97;;;17.74;74.63
65997;BME280;52765;52.258;21.052;2022-07-10T07:21:33;100386.56;;;17.63;76.01
65997;BME280;52765;52.258;21.052;2022-07-10T07:24:17;100363.72;;;17.64;75.17
65997;BME280;52765;52.258;21.052;2022-07-10T07:26:52;100370.38;;;18.03;73.56
65997;BME280;52765;52.258;21.052;2022-07-10T07:29:17;100355.09;;;18.22;72.51
65997;BME280;52765;52.258;21.052;2022-07-10T07:31:43;100363.28;;;18.28;71.20
65997;BME280;52765;52.258;21.052;2022-07-10T07:34:09;100367.31;;;18.59;70.28
65997;BME280;52765;52.258;21.052;2022-07-10T07:36:35;100367.53;;;18.98;67.38
65997;BME280;52765;52.258;21.052;2022-07-10T07:39:01;100368.63;;;18.97;66.34
65997;BME280;52765;52.258;21.052;2022-07-10T07:41:27;100352.66;;;18.80;64.93
65997;BME280;52765;52.258;21.052;2022-07-10T07:43:52;100367.09;;;18.27;66.71
65997;BME280;52765;52.258;21.052;2022-07-10T07:46:18;100342.25;;;17.89;70.40
65997;BME280;52765;52.258;21.052;2022-07-10T07:48:44;100372.91;;;18.11;69.31
65997;BME280;52765;52.258;21.052;2022-07-10T07:51:10;100365.56;;;18.05;70.61
65997;BME280;52765;52.258;21.052;2022-07-10T07:53:35;100366.22;;;18.14;70.57
65997;BME280;52765;52.258;21.052;2022-07-10T07:56:01;100352.75;;;17.92;71.29
65997;BME280;52765;52.258;21.052;2022-07-10T07:58:26;100371.03;;;18.11;71.56
65997;BME280;52765;52.258;21.052;2022-07-10T08:00:52;100342.47;;;17.87;68.98
65997;BME280;52765;52.258;21.052;2022-07-10T08:03:17;100336.41;;;17.99;69.04
65997;BME280;52765;52.258;21.052;2022-07-10T08:05:43;100350.28;;;18.17;70.32
65997;BME280;52765;52.258;21.052;2022-07-10T08:08:08;100372.91;;;18.11;70.93
65997;BME280;52765;52.258;21.052;2022-07-10T08:10:35;100359.25;;;17.98;69.79
65997;BME280;52765;52.258;21.052;2022-07-10T08:13:02;100365.16;;;18.08;64.57
65997;BME280;52765;52.258;21.052;2022-07-10T08:15:28;100364.72;;;17.98;65.69
65997;BME280;52765;52.258;21.052;2022-07-10T08:17:55;100383.75;;;17.91;64.79
65997;BME280;52765;52.258;21.052;2022-07-10T08:20:23;100366.38;;;17.50;69.19
65997;BME280;52765;52.258;21.052;2022-07-10T08:22:49;100369.00;;;17.30;72.42
65997;BME280;52765;52.258;21.052;2022-07-10T08:25:15;100367.56;;;17.34;72.90
65997;BME280;52765;52.258;21.052;2022-07-10T08:27:41;100373.03;;;17.41;73.89
65997;BME280;52765;52.258;21.052;2022-07-10T08:30:08;100385.88;;;17.54;73.93
65997;BME280;52765;52.258;21.052;2022-07-10T08:32:34;100385.22;;;17.52;72.93
65997;BME280;52765;52.258;21.052;2022-07-10T08:35:01;100379.72;;;17.38;73.07
65997;BME280;52765;52.258;21.052;2022-07-10T08:37:26;100367.44;;;17.14;73.74
65997;BME280;52765;52.258;21.052;2022-07-10T08:39:52;100359.78;;;16.96;75.33
65997;BME280;52765;52.258;21.052;2022-07-10T08:42:18;100351.84;;;17.01;76.23
65997;BME280;52765;52.258;21.052;2022-07-10T08:44:44;100363.69;;;17.15;79.29
65997;BME280;52765;52.258;21.052;2022-07-10T08:47:10;100375.91;;;16.76;81.68
65997;BME280;52765;52.258;21.052;2022-07-10T08:49:45;100354.00;;;16.56;83.17
65997;BME280;52765;52.258;21.052;2022-07-10T08:52:38;100378.22;;;16.51;87.41
65997;BME280;52765;52.258;21.052;2022-07-10T08:55:07;100347.22;;;16.45;87.66
65997;BME280;52765;52.258;21.052;2022-07-10T08:57:34;100368.81;;;16.75;86.87
65997;BME280;52765;52.258;21.052;2022-07-10T09:00:00;100375.31;;;17.02;85.43
65997;BME280;52765;52.258;21.052;2022-07-10T09:02:25;100352.47;;;17.04;82.21
65997;BME280;52765;52.258;21.052;2022-07-10T09:04:53;100364.94;;;17.19;80.31
65997;BME280;52765;52.258;21.052;2022-07-10T09:07:21;100357.56;;;17.48;80.03
65997;BME280;52765;52.258;21.052;2022-07-10T09:09:56;100365.91;;;17.88;76.14
65997;BME280;52765;52.258;21.052;2022-07-10T09:12:23;100351.75;;;18.20;71.87
65997;BME280;52765;52.258;21.052;2022-07-10T09:14:52;100355.78;;;18.64;70.86
65997;BME280;52765;52.258;21.052;2022-07-10T09:17:19;100347.22;;;18.87;67.30
65997;BME280;52765;52.258;21.052;2022-07-10T09:19:45;100340.44;;;19.10;66.49
65997;BME280;52765;52.258;21.052;2022-07-10T09:22:12;100353.75;;;19.51;61.23
65997;BME280;52765;52.258;21.052;2022-07-10T09:24:43;100330.84;;;19.59;59.22
65997;BME280;52765;52.258;21.052;2022-07-10T09:27:14;100352.97;;;19.96;57.36
65997;BME280;52765;52.258;21.052;2022-07-10T09:29:47;100344.59;;;19.91;57.45
65997;BME280;52765;52.258;21.052;2022-07-10T09:32:15;100336.00;;;19.29;58.17
65997;BME280;52765;52.258;21.052;2022-07-10T09:34:50;100333.16;;;18.90;55.33
65997;BME280;52765;52.258;21.052;2022-07-10T09:37:38;100342.97;;;18.51;54.30
65997;BME280;52765;52.258;21.052;2022-07-10T09:40:05;100357.91;;;18.48;53.25
65997;BME280;52765;52.258;21.052;2022-07-10T09:45:14;100341.69;;;18.07;56.46
65997;BME280;52765;52.258;21.052;2022-07-10T09:47:59;100326.50;;;17.84;59.07
65997;BME280;52765;52.258;21.052;2022-07-10T09:50:34;100336.31;;;17.72;62.53
65997;BME280;52765;52.258;21.052;2022-07-10T09:53:02;100334.19;;;17.67;63.63
65997;BME280;52765;52.258;21.052;2022-07-10T09:55:32;100338.56;;;17.68;64.17
65997;BME280;52765;52.258;21.052;2022-07-10T09:58:04;100330.28;;;17.42;63.70
65997;BME280;52765;52.258;21.052;2022-07-10T10:00:35;100316.34;;;17.16;63.93
65997;BME280;52765;52.258;21.052;2022-07-10T10:03:06;100350.31;;;17.20;60.37
65997;BME280;52765;52.258;21.052;2022-07-10T10:05:33;100348.22;;;17.23;59.94
65997;BME280;52765;52.258;21.052;2022-07-10T10:08:05;100354.00;;;17.48;59.54
65997;BME280;52765;52.258;21.052;2022-07-10T10:10:32;100339.22;;;17.64;58.71
65997;BME280;52765;52.258;21.052;2022-07-10T10:13:03;100339.09;;;17.85;58.45
65997;BME280;52765;52.258;21.052;2022-07-10T10:15:42;100327.31;;;17.78;57.86
65997;BME280;52765;52.258;21.052;2022-07-10T10:18:11;100347.06;;;17.87;61.32
65997;BME280;52765;52.258;21.052;2022-07-10T10:20:37;100357.09;;;17.86;60.72
65997;BME280;52765;52.258;21.052;2022-07-10T10:23:23;100340.59;;;17.94;57.46
65997;BME280;52765;52.258;21.052;2022-07-10T10:25:52;100343.34;;;18.08;53.27
65997;BME280;52765;52.258;21.052;2022-07-10T10:28:19;100327.81;;;18.02;51.52
65997;BME280;52765;52.258;21.052;2022-07-10T10:30:54;100343.00;;;17.69;53.23
65997;BME280;52765;52.258;21.052;2022-07-10T10:35:58;100324.47;;;18.13;52.37
65997;BME280;52765;52.258;21.052;2022-07-10T10:38:24;100329.34;;;18.38;52.38
65997;BME280;52765;52.258;21.052;2022-07-10T10:40:50;100337.31;;;18.59;51.84
65997;BME280;52765;52.258;21.052;2022-07-10T10:43:24;100318.44;;;18.44;49.83
65997;BME280;52765;52.258;21.052;2022-07-10T10:45:50;100334.41;;;18.88;48.50
65997;BME280;52765;52.258;21.052;2022-07-10T10:48:18;100339.88;;;19.53;47.88
65997;BME280;52765;52.258;21.052;2022-07-10T10:50:49;100325.28;;;19.86;46.46
65997;BME280;52765;52.258;21.052;2022-07-10T10:58:41;100337.28;;;19.71;47.86
65997;BME280;52765;52.258;21.052;2022-07-10T11:06:39;100354.84;;;20.34;50.10
65997;BME280;52765;52.258;21.052;2022-07-10T11:09:40;100335.38;;;20.49;51.06
65997;BME280;52765;52.258;21.052;2022-07-10T11:12:07;100345.56;;;20.03;51.49
65997;BME280;52765;52.258;21.052;2022-07-10T11:14:35;100344.34;;;19.99;51.96
65997;BME280;52765;52.258;21.052;2022-07-10T11:17:02;100364.78;;;19.90;52.15
65997;BME280;52765;52.258;21.052;2022-07-10T11:19:30;100341.78;;;19.52;52.33
65997;BME280;52765;52.258;21.052;2022-07-10T11:22:13;100320.97;;;19.51;52.03
65997;BME280;52765;52.258;21.052;2022-07-10T11:25:25;100337.53;;;19.63;50.07
65997;BME280;52765;52.258;21.052;2022-07-10T11:28:07;100333.16;;;19.55;45.42
65997;BME280;52765;52.258;21.052;2022-07-10T11:31:06;100335.66;;;20.09;45.50
65997;BME280;52765;52.258;21.052;2022-07-10T11:33:39;100343.56;;;20.24;44.17
65997;BME280;52765;52.258;21.052;2022-07-10T11:39:04;100315.66;;;20.40;44.27
65997;BME280;52765;52.258;21.052;2022-07-10T11:41:31;100325.59;;;20.85;43.46
65997;BME280;52765;52.258;21.052;2022-07-10T11:44:01;100322.69;;;20.80;41.93
65997;BME280;52765;52.258;21.052;2022-07-10T11:46:32;100306.72;;;20.51;42.60
65997;BME280;52765;52.258;21.052;2022-07-10T11:48:58;100297.50;;;20.46;42.62
65997;BME280;52765;52.258;21.052;2022-07-10T11:51:37;100307.25;;;20.42;42.94
65997;BME280;52765;52.258;21.052;2022-07-10T11:54:05;100297.97;;;20.68;43.26
65997;BME280;52765;52.258;21.052;2022-07-10T11:56:35;100302.13;;;21.33;42.81
65997;BME280;52765;52.258;21.052;2022-07-10T11:59:06;100291.50;;;21.92;41.62
65997;BME280;52765;52.258;21.052;2022-07-10T12:01:34;100308.38;;;21.21;43.70
65997;BME280;52765;52.258;21.052;2022-07-10T12:04:02;100292.25;;;20.44;45.63
65997;BME280;52765;52.258;21.052;2022-07-10T12:06:30;100279.34;;;20.26;46.54
65997;BME280;52765;52.258;21.052;2022-07-10T12:09:02;100301.44;;;20.25;47.90
65997;BME280;52765;52.258;21.052;2022-07-10T12:11:27;100300.78;;;21.23;46.27
65997;BME280;52765;52.258;21.052;2022-07-10T12:13:53;100305.56;;;21.65;44.94
65997;BME280;52765;52.258;21.052;2022-07-10T12:16:20;100305.34;;;21.48;45.35
65997;BME280;52765;52.258;21.052;2022-07-10T12:18:47;100304.47;;;20.92;45.14
65997;BME280;52765;52.258;21.052;2022-07-10T12:21:15;100330.31;;;20.21;47.28
65997;BME280;52765;52.258;21.052;2022-07-10T12:23:43;100318.78;;;20.19;46.55
65997;BME280;52765;52.258;21.052;2022-07-10T12:26:09;100304.41;;;20.80;44.76
65997;BME280;52765;52.258;21.052;2022-07-10T12:28:50;100316.66;;;21.70;42.70
65997;BME280;52765;52.258;21.052;2022-07-10T12:31:27;100319.00;;;22.27;42.35
65997;BME280;52765;52.258;21.052;2022-07-10T12:34:12;100334.09;;;21.76;46.25
65997;BME280;52765;52.258;21.052;2022-07-10T12:36:49;100339.19;;;19.77;50.89
65997;BME280;52765;52.258;21.052;2022-07-10T12:39:18;100342.72;;;19.19;53.01
65997;BME280;52765;52.258;21.052;2022-07-10T12:41:55;100367.41;;;19.58;53.66
65997;BME280;52765;52.258;21.052;2022-07-10T12:47:10;100360.38;;;18.50;55.07
65997;BME280;52765;52.258;21.052;2022-07-10T12:50:05;100374.91;;;17.82;68.08
65997;BME280;52765;52.258;21.052;2022-07-10T12:52:37;100344.91;;;17.27;76.67
65997;BME280;52765;52.258;21.052;2022-07-10T12:55:14;100349.34;;;17.42;82.34
65997;BME280;52765;52.258;21.052;2022-07-10T13:02:47;100329.75;;;18.55;76.27
65997;BME280;52765;52.258;21.052;2022-07-10T13:05:39;100345.91;;;19.10;72.76
65997;BME280;52765;52.258;21.052;2022-07-10T13:08:15;100333.41;;;19.47;67.05